LDZD/ZAD METAR and TAF weather

Enter ICAO airport designator
Station Type Date Time Source
LDZD METAR 2021/09/24 05:30 UTC NOAA

LDZD 240530Z 12004KT CAVOK 09/09 Q1019 NOSIG


Station Type Date Time Source
LDZD Decoded METAR 2021/09/24 05:30 UTC NOAA

Zadar / Zemunik, Croatia (LDZD) 44-06N 015-21E
Sep 24, 2021 - 01:30 AM EDT / 2021.09.24 0530 UTC
Wind: from the ESE (120 degrees) at 5 MPH (4 KT):0
Visibility: greater than 7 mile(s):0
Temperature: 48 F (9 C)
Dew Point: 48 F (9 C)
Relative Humidity: 100%
Pressure (altimeter): 30.09 in. Hg (1019 hPa)
ob: LDZD 240530Z 12004KT CAVOK 09/09 Q1019 NOSIG
cycle: 5

Station Type Date Time Source
LDZD TAF 2021/09/24 06:27 UTC NOAA

TAF LDZD 240525Z 2406/2506 13004KT 9999 FEW040 TX24/2412Z TN10/2504Z
BECMG 2410/2412 24007KT
BECMG 2416/2418 VRB02KT PROB30
TEMPO 2423/2505 3000 BR MIFG

Example: see airport list